Time;durP1;ratioP1;P1;durP2;ratioP2;P2;SDS_P1;SDS_P2;PMS_P1;PMS_P2;Temp;Humidity;BMP_temperature;BMP_pressure;BME280_temperature;BME280_humidity;BME280_pressure;Samples;Min_cycle;Max_cycle;Signal;HPM_P1;HPM_P2
2023/01/28 00:01:13;;;;;;;4.88;1.70;;;;;;;;;;5020553;28;20049;-77
2023/01/28 00:03:39;;;;;;;3.00;1.63;;;;;;;;;;5019770;28;20091;-77
2023/01/28 00:06:12;;;;;;;3.75;1.88;;;;;;;;;;5023219;28;20045;-76
2023/01/28 00:08:37;;;;;;;4.07;2.00;;;;;;;;;;5011233;28;20061;-75
2023/01/28 00:11:06;;;;;;;2.92;1.67;;;;;;;;;;5014693;28;20060;-76
2023/01/28 00:13:32;;;;;;;4.75;2.05;;;;;;;;;;5019830;28;20057;-75
2023/01/28 00:16:01;;;;;;;4.65;2.08;;;;;;;;;;5021358;28;20257;-74
2023/01/28 00:18:28;;;;;;;5.20;1.90;;;;;;;;;;5020706;28;20136;-75
2023/01/28 00:21:09;;;;;;;5.97;2.50;;;;;;;;;;5019554;28;20468;-73
2023/01/28 00:23:37;;;;;;;9.88;2.83;;;;;;;;;;5002326;28;20073;-74
2023/01/28 00:26:06;;;;;;;6.47;2.97;;;;;;;;;;5019456;28;20111;-75
2023/01/28 00:28:32;;;;;;;5.20;2.45;;;;;;;;;;5018972;28;20049;-74
2023/01/28 00:31:04;;;;;;;6.85;2.72;;;;;;;;;;5015982;28;20057;-75
2023/01/28 00:33:30;;;;;;;9.80;2.30;;;;;;;;;;5020855;28;20132;-75
2023/01/28 00:35:59;;;;;;;6.30;2.47;;;;;;;;;;5018939;28;20054;-74
2023/01/28 00:38:24;;;;;;;4.07;1.92;;;;;;;;;;5002820;28;20049;-73
2023/01/28 00:40:50;;;;;;;4.03;1.80;;;;;;;;;;5021013;28;20052;-75
2023/01/28 00:43:16;;;;;;;4.78;1.90;;;;;;;;;;5021776;28;20049;-74
2023/01/28 00:45:42;;;;;;;6.82;2.03;;;;;;;;;;5020041;28;20053;-74
2023/01/28 00:48:08;;;;;;;5.65;2.30;;;;;;;;;;5024347;28;20046;-74
2023/01/28 00:50:34;;;;;;;8.88;2.30;;;;;;;;;;5018050;28;20046;-73
2023/01/28 00:53:00;;;;;;;8.15;2.60;;;;;;;;;;5023436;28;20049;-75
2023/01/28 00:55:27;;;;;;;6.53;2.35;;;;;;;;;;5023859;28;20041;-76
2023/01/28 00:57:53;;;;;;;6.22;2.60;;;;;;;;;;5021285;28;20445;-73
2023/01/28 01:00:24;;;;;;;9.50;2.65;;;;;;;;;;5023671;28;20487;-74
2023/01/28 01:02:50;;;;;;;4.95;2.10;;;;;;;;;;5021179;28;20075;-74
2023/01/28 01:05:17;;;;;;;6.72;2.20;;;;;;;;;;5025630;28;20632;-74
2023/01/28 01:07:43;;;;;;;5.35;2.30;;;;;;;;;;5028715;28;20108;-74
2023/01/28 01:10:17;;;;;;;4.47;1.83;;;;;;;;;;5003786;28;20059;-75
2023/01/28 01:12:46;;;;;;;4.72;2.00;;;;;;;;;;5018742;28;20046;-74
2023/01/28 01:15:12;;;;;;;3.38;1.80;;;;;;;;;;5028923;28;20252;-74
2023/01/28 01:17:41;;;;;;;6.07;2.40;;;;;;;;;;5024999;28;20052;-75
2023/01/28 01:20:13;;;;;;;6.50;1.98;;;;;;;;;;5040579;28;20498;-73
2023/01/28 01:22:39;;;;;;;4.50;2.30;;;;;;;;;;5023127;28;20069;-74
2023/01/28 01:25:06;;;;;;;7.93;2.47;;;;;;;;;;5024685;28;20145;-73
2023/01/28 01:27:32;;;;;;;3.70;1.75;;;;;;;;;;5022418;28;20120;-76
2023/01/28 01:29:58;;;;;;;5.57;1.58;;;;;;;;;;5024393;28;20037;-76
2023/01/28 01:32:27;;;;;;;2.47;1.20;;;;;;;;;;5012556;28;20049;-73
2023/01/28 01:34:53;;;;;;;2.60;1.10;;;;;;;;;;5012248;28;20045;-74
2023/01/28 01:37:19;;;;;;;2.95;1.30;;;;;;;;;;5014204;28;20664;-75
2023/01/28 01:39:45;;;;;;;3.80;1.17;;;;;;;;;;5016575;28;20057;-76
2023/01/28 01:42:12;;;;;;;3.92;1.00;;;;;;;;;;5016723;28;20049;-74
2023/01/28 01:44:53;;;;;;;1.30;1.00;;;;;;;;;;5015547;28;20049;-73
2023/01/28 01:47:31;;;;;;;2.45;1.05;;;;;;;;;;5017979;28;20045;-74
2023/01/28 01:50:03;;;;;;;2.83;1.10;;;;;;;;;;5015024;28;20089;-75
2023/01/28 01:52:33;;;;;;;1.73;1.45;;;;;;;;;;5016560;28;20061;-73
2023/01/28 01:55:03;;;;;;;3.67;0.88;;;;;;;;;;5017221;28;20057;-73
2023/01/28 01:57:32;;;;;;;2.20;1.00;;;;;;;;;;5000065;28;20080;-74
2023/01/28 02:00:05;;;;;;;2.28;0.77;;;;;;;;;;5013876;28;20049;-76
2023/01/28 02:03:00;;;;;;;1.63;0.98;;;;;;;;;;5014043;28;20359;-73
2023/01/28 02:05:26;;;;;;;2.17;0.90;;;;;;;;;;4995015;28;20754;-72
2023/01/28 02:08:19;;;;;;;1.80;0.90;;;;;;;;;;5022214;28;20049;-72
2023/01/28 02:10:43;;;;;;;0.65;0.65;;;;;;;;;;5021247;28;20061;-73
2023/01/28 02:13:08;;;;;;;1.50;0.88;;;;;;;;;;5024820;28;20284;-73
2023/01/28 02:15:35;;;;;;;1.92;0.90;;;;;;;;;;5024011;28;20140;-75
2023/01/28 02:18:01;;;;;;;7.72;1.10;;;;;;;;;;5003920;28;20061;-72
2023/01/28 02:20:57;;;;;;;0.68;0.65;;;;;;;;;;5018318;28;20056;-73
2023/01/28 02:24:06;;;;;;;1.05;0.80;;;;;;;;;;5018454;28;20403;-73
2023/01/28 02:27:03;;;;;;;2.83;0.93;;;;;;;;;;5020240;28;20103;-73
2023/01/28 02:30:12;;;;;;;1.38;0.80;;;;;;;;;;5020577;28;20132;-75
2023/01/28 02:35:48;;;;;;;3.70;1.10;;;;;;;;;;5618829;22;20208;-79
2023/01/28 02:38:21;;;;;;;3.22;1.20;;;;;;;;;;5004443;28;20046;-76
2023/01/28 02:41:08;;;;;;;2.38;1.30;;;;;;;;;;5011623;28;20049;-79
2023/01/28 02:43:37;;;;;;;2.45;1.25;;;;;;;;;;5011903;28;20050;-76
2023/01/28 02:49:26;;;;;;;3.85;1.20;;;;;;;;;;5008343;28;20053;-77
2023/01/28 02:52:03;;;;;;;2.28;1.23;;;;;;;;;;5005743;28;20060;-76
2023/01/28 02:54:48;;;;;;;3.75;1.10;;;;;;;;;;5008006;28;20049;-75
2023/01/28 02:57:29;;;;;;;3.45;1.20;;;;;;;;;;5008872;28;20136;-77
2023/01/28 03:00:04;;;;;;;2.08;1.27;;;;;;;;;;5006453;28;20046;-76
2023/01/28 03:02:36;;;;;;;2.47;1.20;;;;;;;;;;5007136;28;20056;-75
2023/01/28 03:05:34;;;;;;;3.42;1.58;;;;;;;;;;5004153;28;20058;-77
2023/01/28 03:09:21;;;;;;;4.60;1.50;;;;;;;;;;5006974;28;20533;-75
2023/01/28 03:38:47;;;;;;;9.13;1.05;;;;;;;;;;5009676;28;20057;-74
2023/01/28 03:41:23;;;;;;;4.10;0.80;;;;;;;;;;5011655;28;20483;-74
2023/01/28 03:43:50;;;;;;;2.50;0.75;;;;;;;;;;5008267;28;20388;-75
2023/01/28 03:46:17;;;;;;;1.38;0.93;;;;;;;;;;5000543;28;20233;-75
2023/01/28 03:48:43;;;;;;;0.70;0.70;;;;;;;;;;5000090;28;20042;-75
2023/01/28 03:51:09;;;;;;;1.67;0.85;;;;;;;;;;5002367;28;20053;-76
2023/01/28 03:53:35;;;;;;;2.92;0.98;;;;;;;;;;5000042;28;20046;-75
2023/01/28 03:56:01;;;;;;;1.55;0.80;;;;;;;;;;4999323;28;20415;-77
2023/01/28 03:58:44;;;;;;;1.25;0.80;;;;;;;;;;5004941;28;20131;-76
2023/01/28 04:01:13;;;;;;;0.85;0.70;;;;;;;;;;5007990;28;20162;-75
2023/01/28 04:03:39;;;;;;;0.80;0.73;;;;;;;;;;5011439;28;20056;-76
2023/01/28 04:06:08;;;;;;;1.25;0.75;;;;;;;;;;5004848;28;20138;-75
2023/01/28 04:08:34;;;;;;;4.60;1.00;;;;;;;;;;5001112;28;20149;-76
2023/01/28 04:11:14;;;;;;;2.28;0.75;;;;;;;;;;5003411;28;20185;-77
2023/01/28 04:13:41;;;;;;;4.18;1.45;;;;;;;;;;5000486;28;20288;-75
2023/01/28 04:16:07;;;;;;;2.10;1.10;;;;;;;;;;4999940;28;20572;-75
2023/01/28 04:18:34;;;;;;;5.90;1.45;;;;;;;;;;5005951;28;20333;-77
2023/01/28 04:20:59;;;;;;;1.63;1.10;;;;;;;;;;5001701;28;20077;-75
2023/01/28 04:23:25;;;;;;;1.67;1.17;;;;;;;;;;5007054;28;20049;-74
2023/01/28 04:25:51;;;;;;;2.95;1.10;;;;;;;;;;5001549;28;20407;-77
2023/01/28 04:28:17;;;;;;;1.08;0.82;;;;;;;;;;5013820;28;20038;-75
2023/01/28 04:30:43;;;;;;;2.20;1.10;;;;;;;;;;5007466;28;20053;-76
2023/01/28 04:33:09;;;;;;;2.55;0.90;;;;;;;;;;5009240;28;20064;-77
2023/01/28 04:35:35;;;;;;;1.25;0.90;;;;;;;;;;5011059;28;20937;-75
2023/01/28 04:38:01;;;;;;;6.80;1.30;;;;;;;;;;5010753;28;20054;-77
2023/01/28 04:40:27;;;;;;;3.60;1.33;;;;;;;;;;5003105;28;20056;-73
2023/01/28 04:42:54;;;;;;;4.32;1.23;;;;;;;;;;5006758;28;20057;-77
2023/01/28 04:45:20;;;;;;;2.00;1.10;;;;;;;;;;5006094;28;20050;-76
2023/01/28 04:47:47;;;;;;;1.65;1.10;;;;;;;;;;5004607;28;20042;-74
2023/01/28 04:50:13;;;;;;;0.95;0.80;;;;;;;;;;5008053;28;20041;-77
2023/01/28 04:52:39;;;;;;;1.00;0.90;;;;;;;;;;5006151;28;20053;-75
2023/01/28 04:55:05;;;;;;;2.03;1.40;;;;;;;;;;5008675;28;20118;-74
2023/01/28 04:57:31;;;;;;;0.95;0.82;;;;;;;;;;5008331;28;20060;-75
2023/01/28 04:59:57;;;;;;;1.38;0.88;;;;;;;;;;5020783;28;20168;-76
2023/01/28 05:02:23;;;;;;;0.98;0.80;;;;;;;;;;5013649;28;20046;-76
2023/01/28 05:04:49;;;;;;;2.13;1.15;;;;;;;;;;5000671;28;20108;-74
2023/01/28 05:07:15;;;;;;;2.38;1.00;;;;;;;;;;5010167;28;20052;-76
2023/01/28 05:09:41;;;;;;;1.30;1.10;;;;;;;;;;5014026;28;20050;-75
2023/01/28 05:12:07;;;;;;;1.45;1.02;;;;;;;;;;5001864;28;20054;-74
2023/01/28 05:14:33;;;;;;;3.83;1.05;;;;;;;;;;4998094;28;20054;-76
2023/01/28 05:16:59;;;;;;;4.13;1.30;;;;;;;;;;4999734;28;20049;-78
2023/01/28 05:19:25;;;;;;;1.55;1.08;;;;;;;;;;5000599;28;20064;-78
2023/01/28 05:21:51;;;;;;;2.65;1.23;;;;;;;;;;5004097;28;20061;-75
2023/01/28 05:24:16;;;;;;;1.77;1.00;;;;;;;;;;5005489;28;20046;-74
2023/01/28 05:26:43;;;;;;;2.75;0.93;;;;;;;;;;5007546;28;20659;-77
2023/01/28 05:29:08;;;;;;;3.58;1.20;;;;;;;;;;5004082;28;20053;-75
2023/01/28 05:31:34;;;;;;;1.73;1.00;;;;;;;;;;5002953;28;20061;-76
2023/01/28 05:34:00;;;;;;;3.38;1.40;;;;;;;;;;5002759;28;20383;-75
2023/01/28 05:36:26;;;;;;;3.50;1.60;;;;;;;;;;5002049;28;20128;-76
2023/01/28 05:38:52;;;;;;;3.45;1.17;;;;;;;;;;5005461;28;20038;-74
2023/01/28 05:41:18;;;;;;;2.75;1.42;;;;;;;;;;5002647;28;20406;-76
2023/01/28 05:43:44;;;;;;;2.30;1.23;;;;;;;;;;5002925;28;20048;-75
2023/01/28 05:46:10;;;;;;;2.22;1.40;;;;;;;;;;5002954;28;20499;-74
2023/01/28 05:48:36;;;;;;;3.35;1.80;;;;;;;;;;5001572;28;20046;-75
2023/01/28 05:51:04;;;;;;;3.70;1.77;;;;;;;;;;5004333;28;20072;-75
2023/01/28 05:53:30;;;;;;;5.43;1.73;;;;;;;;;;4997851;28;20054;-74
2023/01/28 05:55:56;;;;;;;4.90;1.95;;;;;;;;;;4999496;28;20050;-73
2023/01/28 05:58:22;;;;;;;6.03;2.13;;;;;;;;;;5001075;28;20073;-74
2023/01/28 06:00:48;;;;;;;6.07;1.92;;;;;;;;;;5000777;28;20104;-78
2023/01/28 06:03:14;;;;;;;7.28;2.10;;;;;;;;;;5001510;28;20057;-76
2023/01/28 06:05:40;;;;;;;4.13;1.98;;;;;;;;;;5003675;28;20667;-77
2023/01/28 06:08:06;;;;;;;9.73;2.42;;;;;;;;;;5005718;28;20042;-74
2023/01/28 06:10:32;;;;;;;4.20;2.20;;;;;;;;;;5002914;28;20056;-76
2023/01/28 06:12:58;;;;;;;4.28;1.95;;;;;;;;;;5001810;28;20073;-76
2023/01/28 06:15:24;;;;;;;5.53;1.90;;;;;;;;;;5003751;28;20060;-76
2023/01/28 06:17:50;;;;;;;4.82;2.00;;;;;;;;;;5003879;28;20050;-76
2023/01/28 06:20:16;;;;;;;8.18;1.80;;;;;;;;;;5007069;28;20111;-76
2023/01/28 06:22:42;;;;;;;3.35;1.50;;;;;;;;;;4995365;28;20050;-74
2023/01/28 06:25:08;;;;;;;3.17;1.75;;;;;;;;;;5000818;28;20474;-78
2023/01/28 06:27:35;;;;;;;3.53;1.67;;;;;;;;;;5000804;28;20065;-77
2023/01/28 06:30:01;;;;;;;3.08;1.38;;;;;;;;;;5002206;28;20058;-75
2023/01/28 06:32:27;;;;;;;2.83;1.25;;;;;;;;;;4996327;28;20606;-78
2023/01/28 06:34:54;;;;;;;1.55;1.20;;;;;;;;;;4999483;28;20050;-77
2023/01/28 06:37:19;;;;;;;3.40;1.58;;;;;;;;;;4998030;28;20057;-76
2023/01/28 06:39:45;;;;;;;3.30;1.27;;;;;;;;;;4997743;28;20073;-75
2023/01/28 06:42:11;;;;;;;6.40;1.45;;;;;;;;;;4999818;28;20506;-77
2023/01/28 06:44:37;;;;;;;4.97;1.80;;;;;;;;;;4997241;28;20046;-78
2023/01/28 06:47:03;;;;;;;4.20;1.60;;;;;;;;;;4997579;28;20060;-78
2023/01/28 06:49:29;;;;;;;3.92;1.40;;;;;;;;;;5003129;28;20050;-77
2023/01/28 06:51:55;;;;;;;3.88;1.70;;;;;;;;;;4998510;28;20075;-77
2023/01/28 06:54:21;;;;;;;2.70;1.75;;;;;;;;;;4998211;28;20057;-76
2023/01/28 06:56:47;;;;;;;2.53;1.45;;;;;;;;;;4998807;28;20493;-75
2023/01/28 06:59:13;;;;;;;3.85;1.88;;;;;;;;;;5003569;28;20056;-76
2023/01/28 07:01:39;;;;;;;4.93;1.80;;;;;;;;;;5000086;28;20396;-77
2023/01/28 07:04:06;;;;;;;3.72;1.70;;;;;;;;;;5001474;28;20400;-76
2023/01/28 07:06:31;;;;;;;2.35;1.65;;;;;;;;;;5008591;28;20050;-76
2023/01/28 07:08:58;;;;;;;5.28;1.95;;;;;;;;;;5003720;28;20057;-78
2023/01/28 07:11:23;;;;;;;3.40;2.00;;;;;;;;;;5003757;23;20054;-77
2023/01/28 07:13:50;;;;;;;5.03;1.92;;;;;;;;;;4972900;28;20059;-75
2023/01/28 07:16:16;;;;;;;8.38;2.75;;;;;;;;;;4958255;28;20054;-77
2023/01/28 07:18:42;;;;;;;10.00;2.78;;;;;;;;;;4962950;28;20361;-73
2023/01/28 07:21:07;;;;;;;7.93;2.42;;;;;;;;;;4962736;28;20904;-74
2023/01/28 07:23:34;;;;;;;5.88;2.75;;;;;;;;;;4965501;28;20134;-76
2023/01/28 07:26:01;;;;;;;7.10;2.88;;;;;;;;;;4962809;28;20151;-76
2023/01/28 07:28:28;;;;;;;6.22;2.38;;;;;;;;;;4964192;28;20138;-75
2023/01/28 07:30:54;;;;;;;13.65;3.33;;;;;;;;;;4962714;28;20125;-79
2023/01/28 07:33:20;;;;;;;7.10;3.10;;;;;;;;;;4959823;28;20125;-77
2023/01/28 07:35:47;;;;;;;9.45;3.95;;;;;;;;;;4964527;28;20562;-75
2023/01/28 07:38:13;;;;;;;8.88;2.95;;;;;;;;;;4967237;28;20619;-77
2023/01/28 07:40:44;;;;;;;7.55;2.75;;;;;;;;;;4955260;28;20074;-75
2023/01/28 07:43:11;;;;;;;5.75;2.92;;;;;;;;;;4964847;28;20081;-78
2023/01/28 07:45:37;;;;;;;7.82;3.38;;;;;;;;;;4965380;28;20058;-76
2023/01/28 07:48:06;;;;;;;10.20;3.50;;;;;;;;;;4963662;28;20467;-78
2023/01/28 07:50:34;;;;;;;11.00;3.63;;;;;;;;;;4969372;28;20462;-76
2023/01/28 07:53:06;;;;;;;9.13;3.50;;;;;;;;;;4965364;28;20492;-79
2023/01/28 07:55:34;;;;;;;10.10;4.03;;;;;;;;;;4965033;28;20070;-79
2023/01/28 07:58:02;;;;;;;10.60;3.95;;;;;;;;;;4965048;28;20063;-77
2023/01/28 08:00:30;;;;;;;14.10;4.53;;;;;;;;;;4960625;28;20043;-72
2023/01/28 08:03:00;;;;;;;14.23;4.45;;;;;;;;;;4963083;28;20061;-75
2023/01/28 08:05:43;;;;;;;12.77;4.53;;;;;;;;;;4967295;28;20054;-75
2023/01/28 08:08:10;;;;;;;13.73;3.92;;;;;;;;;;4964550;28;20054;-76
2023/01/28 08:10:36;;;;;;;9.18;3.70;;;;;;;;;;4964014;28;20535;-76
2023/01/28 08:13:04;;;;;;;11.70;4.15;;;;;;;;;;4960082;28;20062;-76
2023/01/28 08:15:30;;;;;;;8.27;3.53;;;;;;;;;;4960610;28;20484;-77
2023/01/28 08:17:57;;;;;;;10.75;3.00;;;;;;;;;;4960157;28;20047;-77
2023/01/28 08:20:25;;;;;;;12.77;3.13;;;;;;;;;;4957863;28;20484;-78
2023/01/28 08:22:51;;;;;;;8.15;3.05;;;;;;;;;;4959570;28;20047;-77
2023/01/28 08:25:17;;;;;;;18.98;3.20;;;;;;;;;;4954830;28;20511;-74
2023/01/28 08:27:43;;;;;;;6.15;2.78;;;;;;;;;;4962442;28;20051;-76
2023/01/28 08:30:10;;;;;;;8.45;2.50;;;;;;;;;;4964422;28;20078;-77
2023/01/28 08:32:37;;;;;;;5.45;2.40;;;;;;;;;;4968875;28;20079;-78
2023/01/28 08:35:03;;;;;;;7.57;2.65;;;;;;;;;;4969144;28;20511;-77
2023/01/28 08:37:29;;;;;;;6.95;2.20;;;;;;;;;;4962915;28;20089;-74
2023/01/28 08:39:55;;;;;;;11.07;2.83;;;;;;;;;;4966636;28;20082;-76
2023/01/28 08:42:21;;;;;;;5.30;2.72;;;;;;;;;;4966040;28;20393;-77
2023/01/28 08:44:48;;;;;;;6.25;2.45;;;;;;;;;;4963892;28;20055;-77
2023/01/28 08:47:14;;;;;;;6.25;2.75;;;;;;;;;;4968770;28;20260;-74
2023/01/28 08:49:40;;;;;;;6.65;2.50;;;;;;;;;;4966278;28;20043;-77
2023/01/28 08:52:06;;;;;;;8.85;2.50;;;;;;;;;;4966768;28;20094;-75
2023/01/28 08:54:32;;;;;;;7.38;2.75;;;;;;;;;;4968095;28;20508;-78
2023/01/28 08:56:58;;;;;;;4.60;2.78;;;;;;;;;;4970879;28;20054;-77
2023/01/28 08:59:24;;;;;;;9.40;2.97;;;;;;;;;;4966985;28;20053;-77
2023/01/28 09:01:50;;;;;;;4.65;2.30;;;;;;;;;;4965260;28;20056;-77
2023/01/28 09:04:16;;;;;;;9.50;2.95;;;;;;;;;;4966287;28;20050;-77
2023/01/28 09:06:42;;;;;;;6.65;2.65;;;;;;;;;;4970253;28;20079;-75
2023/01/28 09:09:08;;;;;;;7.35;2.83;;;;;;;;;;4966034;28;20043;-73
2023/01/28 09:11:34;;;;;;;12.82;2.38;;;;;;;;;;4976350;28;20055;-79
2023/01/28 09:14:00;;;;;;;3.53;2.35;;;;;;;;;;4965255;28;20047;-74
2023/01/28 09:16:26;;;;;;;5.32;2.55;;;;;;;;;;4972200;28;20043;-76
2023/01/28 09:18:52;;;;;;;5.78;3.10;;;;;;;;;;4964418;28;20152;-76
2023/01/28 09:21:19;;;;;;;7.32;2.30;;;;;;;;;;4972965;28;20116;-75
2023/01/28 09:23:45;;;;;;;6.30;2.70;;;;;;;;;;4968571;28;20053;-76
2023/01/28 09:26:12;;;;;;;7.20;2.55;;;;;;;;;;4971932;28;20047;-77
2023/01/28 09:28:39;;;;;;;6.80;2.70;;;;;;;;;;4974836;28;20046;-81
2023/01/28 09:31:07;;;;;;;5.47;2.47;;;;;;;;;;4972447;28;20053;-75
2023/01/28 09:33:34;;;;;;;9.30;2.92;;;;;;;;;;4973010;28;20051;-75
2023/01/28 09:36:03;;;;;;;10.93;2.90;;;;;;;;;;4966952;28;20042;-76
2023/01/28 09:38:29;;;;;;;5.70;2.72;;;;;;;;;;4971915;28;20046;-80
2023/01/28 09:40:56;;;;;;;6.00;2.55;;;;;;;;;;4960039;28;20435;-78
2023/01/28 09:43:36;;;;;;;4.68;2.58;;;;;;;;;;4965271;28;20047;-77
2023/01/28 09:46:05;;;;;;;9.60;2.88;;;;;;;;;;4968444;28;20059;-77
2023/01/28 09:48:38;;;;;;;7.82;2.60;;;;;;;;;;4974636;28;20075;-77
2023/01/28 09:51:09;;;;;;;5.57;2.63;;;;;;;;;;4976291;28;20089;-79
2023/01/28 09:53:45;;;;;;;6.95;2.55;;;;;;;;;;4970899;28;20046;-77
2023/01/28 09:56:24;;;;;;;6.70;2.65;;;;;;;;;;4968500;28;20139;-79
2023/01/28 09:58:50;;;;;;;5.88;3.10;;;;;;;;;;4970147;28;20051;-76
2023/01/28 10:01:16;;;;;;;4.85;2.50;;;;;;;;;;4975759;28;20042;-76
2023/01/28 10:04:00;;;;;;;8.85;3.15;;;;;;;;;;4972783;28;20156;-76
2023/01/28 10:06:55;;;;;;;5.93;2.30;;;;;;;;;;4959353;28;20062;-76
2023/01/28 10:09:41;;;;;;;4.60;2.25;;;;;;;;;;4958211;28;20054;-74
2023/01/28 10:12:46;;;;;;;6.60;2.63;;;;;;;;;;4963430;28;20062;-73
2023/01/28 10:15:27;;;;;;;7.47;2.60;;;;;;;;;;4969930;28;20097;-76
2023/01/28 10:18:00;;;;;;;4.00;2.13;;;;;;;;;;4963069;28;20060;-75
2023/01/28 10:20:56;;;;;;;5.05;2.50;;;;;;;;;;4967975;28;20107;-76
2023/01/28 10:23:43;;;;;;;5.22;2.40;;;;;;;;;;4961765;28;20047;-74
2023/01/28 10:26:26;;;;;;;4.22;2.20;;;;;;;;;;4966475;28;20051;-77
2023/01/28 10:28:56;;;;;;;9.50;2.38;;;;;;;;;;4964849;28;20047;-76
2023/01/28 10:31:30;;;;;;;5.50;2.47;;;;;;;;;;4970156;28;20371;-75
2023/01/28 10:33:57;;;;;;;5.30;1.92;;;;;;;;;;4968898;28;20058;-78
2023/01/28 10:36:23;;;;;;;3.20;1.90;;;;;;;;;;4970293;28;20043;-73
2023/01/28 10:38:50;;;;;;;3.58;1.88;;;;;;;;;;4968306;28;20333;-74
2023/01/28 10:41:19;;;;;;;6.30;1.90;;;;;;;;;;4966178;28;20051;-72
2023/01/28 10:43:46;;;;;;;6.78;1.70;;;;;;;;;;4975547;28;20059;-73
2023/01/28 10:46:15;;;;;;;3.22;1.70;;;;;;;;;;4972417;28;20050;-74
2023/01/28 10:49:06;;;;;;;9.18;2.20;;;;;;;;;;4964347;28;20050;-72
2023/01/28 10:51:37;;;;;;;2.60;1.48;;;;;;;;;;4964226;28;20053;-75
2023/01/28 10:54:27;;;;;;;2.33;1.05;;;;;;;;;;4963358;28;20047;-75
2023/01/28 10:56:57;;;;;;;2.55;1.25;;;;;;;;;;4964521;28;20550;-70
2023/01/28 10:59:33;;;;;;;1.63;1.10;;;;;;;;;;4966787;28;20073;-71
2023/01/28 11:02:03;;;;;;;1.67;1.25;;;;;;;;;;4965709;28;20806;-74
2023/01/28 11:04:33;;;;;;;3.30;1.50;;;;;;;;;;4961249;28;20141;-72
2023/01/28 11:07:03;;;;;;;8.88;2.00;;;;;;;;;;4962327;28;20046;-72
2023/01/28 11:09:33;;;;;;;3.05;1.60;;;;;;;;;;4956183;28;20699;-71
2023/01/28 11:12:11;;;;;;;3.67;1.17;;;;;;;;;;4959083;28;20149;-74
2023/01/28 11:14:37;;;;;;;3.53;1.42;;;;;;;;;;4961268;28;20354;-74
2023/01/28 11:17:03;;;;;;;6.13;1.33;;;;;;;;;;4956467;28;20054;-71
2023/01/28 11:19:37;;;;;;;2.70;0.95;;;;;;;;;;4962212;28;20047;-75
2023/01/28 11:22:03;;;;;;;2.13;1.38;;;;;;;;;;4972103;28;20039;-73
2023/01/28 11:24:32;;;;;;;1.92;1.33;;;;;;;;;;4964650;28;20062;-73
2023/01/28 11:27:12;;;;;;;3.78;1.38;;;;;;;;;;4962143;28;20051;-72
2023/01/28 11:29:39;;;;;;;2.45;1.10;;;;;;;;;;4973512;28;20413;-73
2023/01/28 11:32:15;;;;;;;3.20;1.10;;;;;;;;;;4957276;28;20492;-71
2023/01/28 11:34:49;;;;;;;3.67;1.30;;;;;;;;;;4959455;28;20059;-71
2023/01/28 11:37:15;;;;;;;1.95;1.30;;;;;;;;;;4954404;28;20046;-72
2023/01/28 11:39:41;;;;;;;2.58;1.50;;;;;;;;;;4959365;28;20496;-74
2023/01/28 11:42:16;;;;;;;3.22;1.25;;;;;;;;;;4958199;28;20109;-71
2023/01/28 11:44:42;;;;;;;3.13;1.38;;;;;;;;;;4958489;28;20500;-72
2023/01/28 11:47:40;;;;;;;1.48;1.23;;;;;;;;;;4959083;28;20061;-73
2023/01/28 11:50:47;;;;;;;2.63;1.23;;;;;;;;;;4974766;28;20428;-75
2023/01/28 11:53:21;;;;;;;3.45;2.50;;;;;;;;;;4951778;28;20054;-72
2023/01/28 11:55:53;;;;;;;3.90;2.38;;;;;;;;;;4959530;28;20054;-72
2023/01/28 11:58:24;;;;;;;2.70;1.60;;;;;;;;;;4959451;28;20351;-71
2023/01/28 12:01:01;;;;;;;6.10;2.47;;;;;;;;;;4959584;28;20055;-70
2023/01/28 12:03:54;;;;;;;6.32;3.05;;;;;;;;;;4961123;28;20061;-73
2023/01/28 12:06:48;;;;;;;10.10;2.60;;;;;;;;;;4964412;28;20141;-72
2023/01/28 12:09:54;;;;;;;9.98;2.90;;;;;;;;;;4954756;28;20058;-70
2023/01/28 12:12:51;;;;;;;7.00;3.08;;;;;;;;;;4963615;28;20058;-75
2023/01/28 12:15:36;;;;;;;6.28;2.40;;;;;;;;;;4963613;28;20046;-72
2023/01/28 12:18:24;;;;;;;5.10;2.28;;;;;;;;;;4962415;28;20074;-72
2023/01/28 12:20:58;;;;;;;4.15;1.70;;;;;;;;;;4958317;28;20050;-71
2023/01/28 12:23:37;;;;;;;4.13;2.30;;;;;;;;;;4959061;28;20071;-74
2023/01/28 12:26:11;;;;;;;6.18;2.90;;;;;;;;;;4958038;28;20046;-72
2023/01/28 12:28:46;;;;;;;5.20;2.33;;;;;;;;;;4954558;28;20054;-70
2023/01/28 12:31:57;;;;;;;7.05;3.42;;;;;;;;;;4955781;28;20051;-68
2023/01/28 12:34:54;;;;;;;7.10;3.72;;;;;;;;;;4933034;28;20550;-70
2023/01/28 12:37:46;;;;;;;4.38;2.72;;;;;;;;;;4935369;28;20102;-68
2023/01/28 12:40:19;;;;;;;6.45;2.00;;;;;;;;;;4934810;28;20058;-69
2023/01/28 12:42:51;;;;;;;6.55;2.85;;;;;;;;;;4936499;28;20060;-72
2023/01/28 12:45:27;;;;;;;3.17;2.05;;;;;;;;;;4940594;28;20082;-68
2023/01/28 12:48:00;;;;;;;4.82;2.28;;;;;;;;;;4937444;28;20055;-72
2023/01/28 12:50:41;;;;;;;6.72;2.35;;;;;;;;;;4943705;28;20551;-73
2023/01/28 12:53:39;;;;;;;4.55;1.50;;;;;;;;;;4946889;29;20039;-71
2023/01/28 12:56:15;;;;;;;7.00;1.83;;;;;;;;;;4948352;29;20047;-73
2023/01/28 12:58:59;;;;;;;5.30;2.65;;;;;;;;;;4941378;28;20153;-73
2023/01/28 13:01:34;;;;;;;4.13;2.00;;;;;;;;;;4941762;28;20055;-71
2023/01/28 13:04:17;;;;;;;4.28;1.65;;;;;;;;;;4943365;29;20486;-68
2023/01/28 13:06:51;;;;;;;4.40;2.30;;;;;;;;;;4942381;28;20055;-71
2023/01/28 13:09:24;;;;;;;4.63;1.60;;;;;;;;;;4942461;29;20059;-69
2023/01/28 13:11:53;;;;;;;3.92;1.63;;;;;;;;;;4964514;28;20842;-71
2023/01/28 13:14:23;;;;;;;3.50;1.50;;;;;;;;;;4962524;28;20065;-68
2023/01/28 13:16:49;;;;;;;5.10;1.40;;;;;;;;;;4962803;28;20055;-70
2023/01/28 13:19:18;;;;;;;2.85;1.30;;;;;;;;;;4959923;28;20046;-69
2023/01/28 13:21:46;;;;;;;9.65;2.67;;;;;;;;;;4962897;28;20331;-70
2023/01/28 13:24:12;;;;;;;7.55;2.13;;;;;;;;;;4966470;28;20067;-70
2023/01/28 13:26:54;;;;;;;7.38;2.58;;;;;;;;;;4966659;28;20054;-70
2023/01/28 13:29:27;;;;;;;3.95;1.63;;;;;;;;;;4963873;28;20053;-70
2023/01/28 13:31:56;;;;;;;3.08;1.42;;;;;;;;;;4962986;28;20050;-69
2023/01/28 13:34:35;;;;;;;2.53;1.50;;;;;;;;;;4972772;28;20047;-72
2023/01/28 13:37:24;;;;;;;3.50;1.80;;;;;;;;;;4962942;28;20051;-70
2023/01/28 13:39:53;;;;;;;5.72;1.50;;;;;;;;;;4959193;28;20146;-69
2023/01/28 13:42:24;;;;;;;2.85;1.38;;;;;;;;;;4962777;28;20054;-72
2023/01/28 13:44:49;;;;;;;1.45;1.10;;;;;;;;;;4961220;28;20073;-71
2023/01/28 13:47:27;;;;;;;2.70;1.13;;;;;;;;;;4961412;28;20046;-70
2023/01/28 13:50:04;;;;;;;2.05;1.17;;;;;;;;;;4964705;28;20058;-67
2023/01/28 13:52:58;;;;;;;2.60;1.13;;;;;;;;;;4961711;28;20177;-70
2023/01/28 13:55:30;;;;;;;1.63;1.08;;;;;;;;;;4962779;28;20809;-70
2023/01/28 13:58:24;;;;;;;1.83;1.00;;;;;;;;;;4961313;28;20172;-71
2023/01/28 14:01:10;;;;;;;1.55;0.88;;;;;;;;;;4963216;28;20780;-71
2023/01/28 14:03:52;;;;;;;3.35;1.15;;;;;;;;;;4964028;28;20047;-69
2023/01/28 14:06:39;;;;;;;2.95;1.50;;;;;;;;;;4962709;28;20065;-71
2023/01/28 14:09:47;;;;;;;4.15;1.65;;;;;;;;;;4964937;28;20051;-74
2023/01/28 14:12:48;;;;;;;3.10;1.30;;;;;;;;;;4964371;28;20157;-71
2023/01/28 14:15:32;;;;;;;2.53;1.00;;;;;;;;;;4961103;28;20050;-72
2023/01/28 14:17:59;;;;;;;0.93;0.60;;;;;;;;;;4964131;28;20059;-74
2023/01/28 14:20:36;;;;;;;2.45;1.25;;;;;;;;;;4964207;28;20055;-74
2023/01/28 14:23:15;;;;;;;1.75;0.90;;;;;;;;;;4958595;28;20071;-74
2023/01/28 14:25:47;;;;;;;2.05;1.02;;;;;;;;;;4962943;28;20081;-74
2023/01/28 14:28:27;;;;;;;3.75;1.20;;;;;;;;;;4965422;28;20074;-73
2023/01/28 14:30:58;;;;;;;3.25;1.00;;;;;;;;;;4970822;28;20057;-73
2023/01/28 14:33:24;;;;;;;1.92;1.10;;;;;;;;;;4971925;28;20046;-67
2023/01/28 14:35:50;;;;;;;2.65;1.52;;;;;;;;;;4966927;28;20043;-74
2023/01/28 14:38:20;;;;;;;1.67;1.00;;;;;;;;;;4965759;28;20062;-68
2023/01/28 14:40:53;;;;;;;3.67;1.27;;;;;;;;;;4979795;28;20414;-69
2023/01/28 14:43:26;;;;;;;4.85;2.05;;;;;;;;;;4961550;28;20046;-71
2023/01/28 14:46:10;;;;;;;7.32;2.03;;;;;;;;;;4962237;28;20047;-71
2023/01/28 14:48:37;;;;;;;1.98;0.90;;;;;;;;;;4962225;28;20051;-72
2023/01/28 14:51:41;;;;;;;1.70;0.93;;;;;;;;;;4969891;28;20424;-71
2023/01/28 14:54:25;;;;;;;2.13;1.20;;;;;;;;;;4956515;28;20061;-75
2023/01/28 14:57:11;;;;;;;;;;;;;;;;;;4971013;28;20454;-71
2023/01/28 14:59:47;;;;;;;1.92;1.00;;;;;;;;;;4967942;28;19953;-75
2023/01/28 15:02:19;;;;;;;5.70;1.40;;;;;;;;;;4971825;28;20051;-70
2023/01/28 15:04:45;;;;;;;7.60;1.40;;;;;;;;;;4969318;28;20070;-73
2023/01/28 15:07:21;;;;;;;2.88;1.33;;;;;;;;;;4976695;28;20047;-71
2023/01/28 15:09:58;;;;;;;2.88;1.35;;;;;;;;;;4970413;28;20058;-71
2023/01/28 15:12:24;;;;;;;6.20;1.40;;;;;;;;;;4971072;28;20515;-70
2023/01/28 15:14:50;;;;;;;1.77;1.10;;;;;;;;;;4971271;28;20101;-74
2023/01/28 15:17:26;;;;;;;2.78;1.10;;;;;;;;;;4966504;28;20047;-70
2023/01/28 15:19:56;;;;;;;1.38;0.98;;;;;;;;;;4972367;28;20058;-70
2023/01/28 15:22:27;;;;;;;10.35;1.20;;;;;;;;;;4965834;28;20377;-73
2023/01/28 15:24:54;;;;;;;2.03;1.10;;;;;;;;;;4961783;28;20081;-72
2023/01/28 15:27:28;;;;;;;3.28;1.08;;;;;;;;;;4959968;28;20784;-74
2023/01/28 15:29:57;;;;;;;2.50;1.30;;;;;;;;;;4969157;28;20046;-74
2023/01/28 15:32:29;;;;;;;2.08;1.00;;;;;;;;;;4962880;28;20404;-68
2023/01/28 15:34:57;;;;;;;3.35;1.30;;;;;;;;;;4966971;28;20583;-74
2023/01/28 15:37:23;;;;;;;4.38;1.15;;;;;;;;;;4972417;28;20691;-70
2023/01/28 15:40:00;;;;;;;5.18;1.30;;;;;;;;;;4964449;28;20047;-70
2023/01/28 15:42:28;;;;;;;2.03;1.25;;;;;;;;;;4964855;28;20463;-68
2023/01/28 15:44:57;;;;;;;2.03;1.20;;;;;;;;;;4967632;28;20417;-73